Adak, Alaska
Current Conditions -  °F | °C
As of 4:56 PM on Saturday 25 Oct 2014 (Local Time) from PADK Reporting Station
Overcast Overcast  
Wind Chill: 44°   Ceiling: 3600
Heat Index: 48°   Visibility: 6mi
Dew Point: 37°   Wind: 9mph
Humidity: 66%   Direction: 250°WSW
Pressure: 30.04"   Gusts: NA
Location:  51.88°N, 176.66°W
Report Text: PADK 260156Z AUTO 25008KT 6SM FEW030 OVC036 09/03 A3004 RMK AO1
Loading
Personal Weather Stations






























Interactive Weather Map
Tropical Storm Tracking
New forecast layout! Learn more

10-Day Weather Forecast

Advertisements
Track Severe Weather on mobile